Time;durP1;ratioP1;P1;durP2;ratioP2;P2;SDS_P1;SDS_P2;PMS_P1;PMS_P2;Temp;Humidity;BMP_temperature;BMP_pressure;BME280_temperature;BME280_humidity;BME280_pressure;Samples;Min_cycle;Max_cycle;Signal;HPM_P1;HPM_P2
2023/12/20 00:01:00;;;;;;;12.27;1.90;;;;;;;;;;4916648;29;20040;-75
2023/12/20 00:03:26;;;;;;;17.15;2.53;;;;;;;;;;4926307;29;20059;-75
2023/12/20 00:05:52;;;;;;;10.25;2.35;;;;;;;;;;4932156;29;21551;-75
2023/12/20 00:08:18;;;;;;;14.18;2.97;;;;;;;;;;4916327;29;20079;-75
2023/12/20 00:10:45;;;;;;;15.55;3.38;;;;;;;;;;4920253;29;20507;-75
2023/12/20 00:13:11;;;;;;;16.67;2.75;;;;;;;;;;4918495;29;20043;-75
2023/12/20 00:15:37;;;;;;;13.73;2.97;;;;;;;;;;4917949;29;20397;-75
2023/12/20 00:18:03;;;;;;;15.73;2.58;;;;;;;;;;4933853;29;20514;-75
2023/12/20 00:20:29;;;;;;;14.82;3.00;;;;;;;;;;4914975;29;20047;-75
2023/12/20 00:22:59;;;;;;;17.15;3.28;;;;;;;;;;4934510;29;20039;-75
2023/12/20 00:25:25;;;;;;;17.45;3.10;;;;;;;;;;4902184;29;20047;-75
2023/12/20 00:27:51;;;;;;;22.08;2.67;;;;;;;;;;4914660;29;20348;-75
2023/12/20 00:30:17;;;;;;;19.88;2.78;;;;;;;;;;4930054;29;20035;-75
2023/12/20 00:32:46;;;;;;;16.90;2.88;;;;;;;;;;4917364;29;20050;-76
2023/12/20 00:35:15;;;;;;;15.15;2.85;;;;;;;;;;4907182;29;20043;-76
2023/12/20 00:37:41;;;;;;;9.57;2.38;;;;;;;;;;4901143;29;20126;-75
2023/12/20 00:40:08;;;;;;;13.20;2.35;;;;;;;;;;4926168;29;20395;-75
2023/12/20 00:42:34;;;;;;;12.75;2.70;;;;;;;;;;4931491;29;20040;-75
2023/12/20 00:45:00;;;;;;;18.15;2.42;;;;;;;;;;4924291;29;20130;-75
2023/12/20 00:47:27;;;;;;;13.63;2.92;;;;;;;;;;4916606;29;20040;-75
2023/12/20 00:49:53;;;;;;;17.77;3.28;;;;;;;;;;4922784;29;20042;-75
2023/12/20 00:52:19;;;;;;;18.13;2.88;;;;;;;;;;4929712;29;20095;-75
2023/12/20 00:54:45;;;;;;;18.50;3.55;;;;;;;;;;4918543;29;20040;-75
2023/12/20 00:57:11;;;;;;;17.13;2.78;;;;;;;;;;4932332;29;20035;-76
2023/12/20 00:59:37;;;;;;;15.27;2.97;;;;;;;;;;4931747;29;20043;-75
2023/12/20 01:02:03;;;;;;;12.18;2.85;;;;;;;;;;4915620;29;20040;-76
2023/12/20 01:04:29;;;;;;;26.73;3.47;;;;;;;;;;4916681;29;20043;-76
2023/12/20 01:06:55;;;;;;;20.55;3.03;;;;;;;;;;4902964;29;20055;-76
2023/12/20 01:09:26;;;;;;;19.80;3.15;;;;;;;;;;4936718;29;20069;-75
2023/12/20 01:11:52;;;;;;;16.98;3.47;;;;;;;;;;4934121;28;20512;-76
2023/12/20 01:14:18;;;;;;;14.75;2.90;;;;;;;;;;4936298;29;20039;-76
2023/12/20 01:16:46;;;;;;;19.40;3.58;;;;;;;;;;4936084;29;20075;-76
2023/12/20 01:19:13;;;;;;;19.48;3.47;;;;;;;;;;4935384;29;20086;-76
2023/12/20 01:21:40;;;;;;;14.85;3.00;;;;;;;;;;4929172;29;20051;-76
2023/12/20 01:24:06;;;;;;;24.55;3.88;;;;;;;;;;4934337;29;20042;-76
2023/12/20 01:26:32;;;;;;;17.85;2.78;;;;;;;;;;4911494;29;20031;-76
2023/12/20 01:28:58;;;;;;;21.88;2.88;;;;;;;;;;4936196;29;20070;-76
2023/12/20 01:31:24;;;;;;;19.80;4.03;;;;;;;;;;4934937;29;20183;-76
2023/12/20 01:33:50;;;;;;;27.35;3.38;;;;;;;;;;4917802;29;20055;-75
2023/12/20 01:36:16;;;;;;;21.00;3.03;;;;;;;;;;4907344;29;20574;-75
2023/12/20 01:38:42;;;;;;;17.25;3.83;;;;;;;;;;4936281;29;20039;-75
2023/12/20 01:41:08;;;;;;;19.95;3.72;;;;;;;;;;4934064;29;20039;-76
2023/12/20 01:43:34;;;;;;;24.27;3.22;;;;;;;;;;4918946;29;20051;-76
2023/12/20 01:46:00;;;;;;;20.90;3.78;;;;;;;;;;4919812;29;20043;-76
2023/12/20 01:48:28;;;;;;;17.67;3.40;;;;;;;;;;4935964;29;20491;-76
2023/12/20 01:50:54;;;;;;;34.33;4.82;;;;;;;;;;4924623;29;20039;-76
2023/12/20 01:53:22;;;;;;;22.25;3.40;;;;;;;;;;4918310;29;20082;-82
2023/12/20 01:55:50;;;;;;;20.60;3.28;;;;;;;;;;4929714;29;20048;-82
2023/12/20 01:58:17;;;;;;;18.67;3.20;;;;;;;;;;4929856;29;20047;-82
2023/12/20 02:00:43;;;;;;;20.83;3.05;;;;;;;;;;4909689;29;20553;-81
2023/12/20 02:03:09;;;;;;;21.20;4.35;;;;;;;;;;4925400;29;20373;-81
2023/12/20 02:05:36;;;;;;;22.65;3.50;;;;;;;;;;4906360;29;20044;-81
2023/12/20 02:08:03;;;;;;;25.92;3.17;;;;;;;;;;4934551;29;20058;-81
2023/12/20 02:10:29;;;;;;;19.08;3.63;;;;;;;;;;4934075;29;20129;-81
2023/12/20 02:12:55;;;;;;;24.23;3.28;;;;;;;;;;4930695;29;20458;-81
2023/12/20 02:15:21;;;;;;;25.55;3.95;;;;;;;;;;4927403;29;20075;-81
2023/12/20 02:17:48;;;;;;;22.75;3.92;;;;;;;;;;4896918;29;20492;-81
2023/12/20 02:20:14;;;;;;;17.02;3.30;;;;;;;;;;4935312;29;20043;-81
2023/12/20 02:22:41;;;;;;;23.45;4.75;;;;;;;;;;4936261;29;20035;-82
2023/12/20 02:25:07;;;;;;;31.13;3.70;;;;;;;;;;4932002;29;20177;-82
2023/12/20 02:27:33;;;;;;;19.88;3.30;;;;;;;;;;4900009;29;20035;-81
2023/12/20 02:29:59;;;;;;;20.73;4.35;;;;;;;;;;4900591;29;20208;-81
2023/12/20 02:32:28;;;;;;;22.15;3.05;;;;;;;;;;4935092;29;20043;-81
2023/12/20 02:34:55;;;;;;;25.58;3.70;;;;;;;;;;4931574;29;20114;-82
2023/12/20 02:37:21;;;;;;;32.63;3.75;;;;;;;;;;4922535;29;20536;-81
2023/12/20 02:39:47;;;;;;;19.30;3.97;;;;;;;;;;4922862;29;20138;-81
2023/12/20 02:42:15;;;;;;;18.75;3.22;;;;;;;;;;4911171;29;20043;-81
2023/12/20 02:44:41;;;;;;;20.35;4.30;;;;;;;;;;4930112;29;20067;-81
2023/12/20 02:47:07;;;;;;;19.52;3.55;;;;;;;;;;4924341;29;20039;-81
2023/12/20 02:49:33;;;;;;;31.90;4.13;;;;;;;;;;4930335;29;20048;-81
2023/12/20 02:51:59;;;;;;;19.05;3.60;;;;;;;;;;4926749;28;20512;-81
2023/12/20 02:54:25;;;;;;;25.58;3.53;;;;;;;;;;4933702;29;20134;-82
2023/12/20 02:56:51;;;;;;;21.90;3.88;;;;;;;;;;4926872;29;20035;-82
2023/12/20 02:59:17;;;;;;;19.05;4.35;;;;;;;;;;4922685;29;20517;-82
2023/12/20 03:01:46;;;;;;;24.92;4.00;;;;;;;;;;4890174;29;20086;-81
2023/12/20 03:04:13;;;;;;;16.67;3.03;;;;;;;;;;4925827;29;20046;-82
2023/12/20 03:06:39;;;;;;;22.23;3.53;;;;;;;;;;4929439;29;20484;-81
2023/12/20 03:09:05;;;;;;;24.13;3.00;;;;;;;;;;4928415;29;20123;-81
2023/12/20 03:11:31;;;;;;;19.95;3.67;;;;;;;;;;4915054;29;20044;-82
2023/12/20 03:13:58;;;;;;;20.55;3.97;;;;;;;;;;4905592;29;20058;-81
2023/12/20 03:16:24;;;;;;;24.92;3.67;;;;;;;;;;4929676;29;20052;-81
2023/12/20 03:18:50;;;;;;;24.55;4.00;;;;;;;;;;4906691;29;20050;-82
2023/12/20 03:21:16;;;;;;;25.08;3.55;;;;;;;;;;4919972;29;20094;-81
2023/12/20 03:23:43;;;;;;;22.05;3.45;;;;;;;;;;4924314;29;20032;-81
2023/12/20 03:26:09;;;;;;;27.23;3.92;;;;;;;;;;4924293;29;20044;-81
2023/12/20 03:28:35;;;;;;;18.63;3.83;;;;;;;;;;4919303;29;20075;-81
2023/12/20 03:31:02;;;;;;;21.63;4.45;;;;;;;;;;4909478;29;20126;-81
2023/12/20 03:33:28;;;;;;;23.48;3.70;;;;;;;;;;4929717;29;20519;-81
2023/12/20 03:35:54;;;;;;;22.15;3.40;;;;;;;;;;4923320;29;20170;-81
2023/12/20 03:38:21;;;;;;;25.38;3.42;;;;;;;;;;4913414;29;20048;-81
2023/12/20 03:40:47;;;;;;;26.67;4.40;;;;;;;;;;4924611;29;20030;-80
2023/12/20 03:43:13;;;;;;;23.10;3.70;;;;;;;;;;4921177;29;20033;-81
2023/12/20 03:45:39;;;;;;;19.27;3.58;;;;;;;;;;4922491;29;20043;-81
2023/12/20 03:48:05;;;;;;;27.52;4.50;;;;;;;;;;4938812;29;20039;-81
2023/12/20 03:50:31;;;;;;;20.10;3.13;;;;;;;;;;4912119;29;20448;-82
2023/12/20 03:52:57;;;;;;;19.50;3.63;;;;;;;;;;4898964;29;20063;-81
2023/12/20 03:55:23;;;;;;;22.67;3.80;;;;;;;;;;4913961;29;20126;-81
2023/12/20 03:57:49;;;;;;;17.38;3.30;;;;;;;;;;4921785;29;20040;-81
2023/12/20 04:00:16;;;;;;;31.42;3.92;;;;;;;;;;4928383;29;20062;-82
2023/12/20 04:02:42;;;;;;;19.33;4.05;;;;;;;;;;4926913;29;20036;-81
2023/12/20 04:05:09;;;;;;;16.58;3.45;;;;;;;;;;4926561;29;20178;-81
2023/12/20 04:07:35;;;;;;;20.75;3.22;;;;;;;;;;4895466;29;20047;-81
2023/12/20 04:10:03;;;;;;;21.85;3.38;;;;;;;;;;4918692;29;20052;-81
2023/12/20 04:12:29;;;;;;;19.92;3.70;;;;;;;;;;4929105;29;20062;-81
2023/12/20 04:14:55;;;;;;;18.27;3.20;;;;;;;;;;4914868;29;20484;-81
2023/12/20 04:17:22;;;;;;;22.48;3.65;;;;;;;;;;4913124;29;20032;-81
2023/12/20 04:19:49;;;;;;;18.38;3.42;;;;;;;;;;4910831;29;20032;-81
2023/12/20 04:22:15;;;;;;;25.38;3.85;;;;;;;;;;4922845;29;20032;-81
2023/12/20 04:24:44;;;;;;;19.60;3.67;;;;;;;;;;4917641;29;20036;-81
2023/12/20 04:27:10;;;;;;;15.15;3.97;;;;;;;;;;4916016;29;20393;-81
2023/12/20 04:29:36;;;;;;;26.13;3.83;;;;;;;;;;4927410;29;20043;-81
2023/12/20 04:32:02;;;;;;;16.00;3.03;;;;;;;;;;4912608;29;20051;-81
2023/12/20 04:34:28;;;;;;;20.88;3.78;;;;;;;;;;4914912;29;20582;-82
2023/12/20 04:36:54;;;;;;;21.55;3.50;;;;;;;;;;4910738;29;20404;-81
2023/12/20 04:39:20;;;;;;;16.95;3.50;;;;;;;;;;4925354;29;20040;-81
2023/12/20 04:41:47;;;;;;;16.20;3.42;;;;;;;;;;4929994;29;20048;-81
2023/12/20 04:44:13;;;;;;;13.63;2.78;;;;;;;;;;4905487;29;20032;-81
2023/12/20 04:46:40;;;;;;;19.77;4.50;;;;;;;;;;4912058;29;20063;-81
2023/12/20 04:49:06;;;;;;;23.02;4.25;;;;;;;;;;4916660;29;20036;-81
2023/12/20 04:51:36;;;;;;;23.90;4.28;;;;;;;;;;4916647;29;20123;-81
2023/12/20 04:54:02;;;;;;;20.15;3.80;;;;;;;;;;4916194;29;20106;-81
2023/12/20 04:56:28;;;;;;;22.02;4.20;;;;;;;;;;4923304;29;20035;-81
2023/12/20 04:58:54;;;;;;;27.42;3.88;;;;;;;;;;4924587;29;20370;-81
2023/12/20 05:01:21;;;;;;;20.77;3.72;;;;;;;;;;4911726;29;20444;-82
2023/12/20 05:03:47;;;;;;;19.38;3.88;;;;;;;;;;4920538;29;20047;-82
2023/12/20 05:06:14;;;;;;;22.95;4.22;;;;;;;;;;4920746;29;20524;-81
2023/12/20 05:08:40;;;;;;;26.20;3.35;;;;;;;;;;4921172;29;20087;-81
2023/12/20 05:11:07;;;;;;;31.10;4.28;;;;;;;;;;4916667;29;20055;-81
2023/12/20 05:13:33;;;;;;;20.40;3.55;;;;;;;;;;4900468;28;20071;-81
2023/12/20 05:15:59;;;;;;;20.10;3.53;;;;;;;;;;4929607;29;20042;-81
2023/12/20 05:18:25;;;;;;;23.55;3.63;;;;;;;;;;4931094;29;20071;-81
2023/12/20 05:20:52;;;;;;;26.60;3.95;;;;;;;;;;4919063;29;20036;-81
2023/12/20 05:23:18;;;;;;;22.40;3.78;;;;;;;;;;4936587;29;20067;-81
2023/12/20 05:25:44;;;;;;;20.63;3.70;;;;;;;;;;4934935;29;20115;-81
2023/12/20 05:28:10;;;;;;;23.13;3.78;;;;;;;;;;4929436;29;20039;-81
2023/12/20 05:30:36;;;;;;;26.13;3.92;;;;;;;;;;4935467;29;20036;-80
2023/12/20 05:33:02;;;;;;;25.05;3.80;;;;;;;;;;4915769;29;20124;-80
2023/12/20 05:35:28;;;;;;;20.60;3.53;;;;;;;;;;4929904;29;20055;-81
2023/12/20 05:37:54;;;;;;;24.77;3.72;;;;;;;;;;4931304;29;20047;-81
2023/12/20 05:40:20;;;;;;;24.38;3.85;;;;;;;;;;4923877;29;20043;-81
2023/12/20 05:42:46;;;;;;;21.95;4.32;;;;;;;;;;4914847;29;20039;-81
2023/12/20 05:45:13;;;;;;;34.95;5.80;;;;;;;;;;4927489;29;20040;-81
2023/12/20 05:47:39;;;;;;;19.63;3.00;;;;;;;;;;4923092;29;20036;-81
2023/12/20 05:50:05;;;;;;;21.08;3.63;;;;;;;;;;4898496;29;20035;-81
2023/12/20 05:52:32;;;;;;;26.83;3.38;;;;;;;;;;4919365;29;20388;-81
2023/12/20 05:55:01;;;;;;;20.88;4.50;;;;;;;;;;4931030;29;20090;-83
2023/12/20 05:57:27;;;;;;;24.70;5.28;;;;;;;;;;4914336;29;20075;-81
2023/12/20 05:59:53;;;;;;;22.63;4.32;;;;;;;;;;4926733;29;20046;-82
2023/12/20 06:02:19;;;;;;;25.25;4.93;;;;;;;;;;4903841;29;20435;-81
2023/12/20 06:04:45;;;;;;;21.48;3.65;;;;;;;;;;4916616;29;20068;-81
2023/12/20 06:07:14;;;;;;;18.60;3.70;;;;;;;;;;4934513;29;20143;-81
2023/12/20 06:09:41;;;;;;;25.30;4.10;;;;;;;;;;4896941;29;20056;-81
2023/12/20 06:12:08;;;;;;;17.58;3.45;;;;;;;;;;4933600;29;20051;-81
2023/12/20 06:14:34;;;;;;;23.38;4.20;;;;;;;;;;4898398;29;20052;-81
2023/12/20 06:17:03;;;;;;;15.77;3.95;;;;;;;;;;4916264;29;20051;-81
2023/12/20 06:19:29;;;;;;;19.50;3.50;;;;;;;;;;4903104;29;20451;-80
2023/12/20 06:21:56;;;;;;;21.42;3.65;;;;;;;;;;4923831;29;20043;-81
2023/12/20 06:24:22;;;;;;;16.88;3.58;;;;;;;;;;4929373;29;20051;-81
2023/12/20 06:26:48;;;;;;;25.02;3.58;;;;;;;;;;4926135;29;20036;-81
2023/12/20 06:29:14;;;;;;;26.85;3.70;;;;;;;;;;4931083;29;20484;-81
2023/12/20 06:31:40;;;;;;;21.02;3.45;;;;;;;;;;4921510;29;20035;-81
2023/12/20 06:34:06;;;;;;;21.90;3.70;;;;;;;;;;4912051;29;20036;-81
2023/12/20 06:36:32;;;;;;;16.70;3.97;;;;;;;;;;4915615;29;20499;-81
2023/12/20 06:38:58;;;;;;;28.95;4.63;;;;;;;;;;4901349;29;20134;-81
2023/12/20 06:41:24;;;;;;;25.85;3.33;;;;;;;;;;4914828;29;20126;-80
2023/12/20 06:43:51;;;;;;;24.63;4.75;;;;;;;;;;4927376;29;20127;-81
2023/12/20 06:46:17;;;;;;;24.05;4.20;;;;;;;;;;4943491;29;20093;-81
2023/12/20 06:48:43;;;;;;;23.95;4.38;;;;;;;;;;4928155;29;20040;-81
2023/12/20 06:51:14;;;;;;;25.92;4.25;;;;;;;;;;4926078;29;20050;-83
2023/12/20 06:53:41;;;;;;;20.58;4.55;;;;;;;;;;4927584;29;20042;-81
2023/12/20 06:56:07;;;;;;;30.73;4.00;;;;;;;;;;4914000;29;20441;-81
2023/12/20 06:58:33;;;;;;;28.58;5.65;;;;;;;;;;4920276;29;20047;-81
2023/12/20 07:00:59;;;;;;;23.00;4.65;;;;;;;;;;4926450;29;20388;-81
2023/12/20 07:03:25;;;;;;;26.10;3.88;;;;;;;;;;4925471;29;20119;-82
2023/12/20 07:05:51;;;;;;;24.05;4.00;;;;;;;;;;4897298;29;20556;-81
2023/12/20 07:08:19;;;;;;;18.63;3.70;;;;;;;;;;4922254;29;20047;-81
2023/12/20 07:10:45;;;;;;;17.23;3.60;;;;;;;;;;4907702;29;20062;-82
2023/12/20 07:13:12;;;;;;;25.20;3.65;;;;;;;;;;4928564;29;20502;-81
2023/12/20 07:15:38;;;;;;;25.48;3.95;;;;;;;;;;4914288;29;20044;-81
2023/12/20 07:18:05;;;;;;;19.92;4.25;;;;;;;;;;4928624;29;20067;-81
2023/12/20 07:20:31;;;;;;;23.63;4.75;;;;;;;;;;4904870;29;20071;-82
2023/12/20 07:22:57;;;;;;;20.20;3.70;;;;;;;;;;4923669;29;20040;-81
2023/12/20 07:25:23;;;;;;;32.05;4.38;;;;;;;;;;4894420;29;20126;-82
2023/12/20 07:27:49;;;;;;;23.00;3.72;;;;;;;;;;4927542;29;20038;-82
2023/12/20 07:30:15;;;;;;;22.48;3.85;;;;;;;;;;4914213;29;20489;-82
2023/12/20 07:32:41;;;;;;;24.67;3.63;;;;;;;;;;4906343;29;20043;-82
2023/12/20 07:35:08;;;;;;;19.55;3.63;;;;;;;;;;4914273;29;20175;-82
2023/12/20 07:37:34;;;;;;;16.45;3.28;;;;;;;;;;4902250;29;20048;-82
2023/12/20 07:40:00;;;;;;;24.20;3.97;;;;;;;;;;4912263;29;20189;-80
2023/12/20 07:42:26;;;;;;;28.95;4.78;;;;;;;;;;4908988;29;20327;-81
2023/12/20 07:44:52;;;;;;;17.02;3.67;;;;;;;;;;4905805;29;20028;-82
2023/12/20 07:47:21;;;;;;;23.55;3.85;;;;;;;;;;4930564;29;20035;-82
2023/12/20 07:49:47;;;;;;;28.45;3.97;;;;;;;;;;4917237;29;20051;-82
2023/12/20 07:52:13;;;;;;;25.90;5.05;;;;;;;;;;4937612;29;20404;-82
2023/12/20 07:54:40;;;;;;;27.88;4.13;;;;;;;;;;4932323;29;20058;-82
2023/12/20 07:57:06;;;;;;;21.20;3.65;;;;;;;;;;4918180;29;20052;-82
2023/12/20 07:59:32;;;;;;;17.38;3.40;;;;;;;;;;4907672;29;20047;-82
2023/12/20 08:01:58;;;;;;;14.35;2.63;;;;;;;;;;4917260;29;20079;-82
2023/12/20 08:04:24;;;;;;;10.20;2.47;;;;;;;;;;4926332;29;20071;-82
2023/12/20 08:06:51;;;;;;;10.13;1.88;;;;;;;;;;4930971;29;20047;-82
2023/12/20 08:09:17;;;;;;;18.30;3.00;;;;;;;;;;4906555;29;20044;-82
2023/12/20 08:11:46;;;;;;;18.02;3.10;;;;;;;;;;4935754;29;20047;-82
2023/12/20 08:14:12;;;;;;;20.33;2.97;;;;;;;;;;4913101;29;20043;-82
2023/12/20 08:16:39;;;;;;;18.95;3.47;;;;;;;;;;4930169;29;20044;-82
2023/12/20 08:19:05;;;;;;;20.77;3.75;;;;;;;;;;4911541;29;20043;-81
2023/12/20 08:21:31;;;;;;;21.90;4.18;;;;;;;;;;4932782;29;20048;-81
2023/12/20 08:23:57;;;;;;;28.75;4.95;;;;;;;;;;4896677;29;20122;-81
2023/12/20 08:26:24;;;;;;;17.23;3.60;;;;;;;;;;4916173;29;20043;-81
2023/12/20 08:28:50;;;;;;;22.50;3.95;;;;;;;;;;4899456;29;20428;-81
2023/12/20 08:31:17;;;;;;;20.95;3.83;;;;;;;;;;4911880;29;20079;-80
2023/12/20 08:33:46;;;;;;;20.70;3.72;;;;;;;;;;4930484;29;20127;-75
2023/12/20 08:36:13;;;;;;;21.63;4.00;;;;;;;;;;4927503;29;20043;-75
2023/12/20 08:38:39;;;;;;;24.40;3.72;;;;;;;;;;4924741;29;20044;-75
2023/12/20 08:41:05;;;;;;;25.42;4.05;;;;;;;;;;4928585;29;20091;-74
2023/12/20 08:43:35;;;;;;;21.90;4.30;;;;;;;;;;4903768;29;20464;-75
2023/12/20 08:46:02;;;;;;;22.77;3.53;;;;;;;;;;4892882;29;20044;-75
2023/12/20 08:48:28;;;;;;;19.50;3.78;;;;;;;;;;4909669;29;20517;-74
2023/12/20 08:50:54;;;;;;;29.30;3.33;;;;;;;;;;4926337;29;20052;-75
2023/12/20 08:53:20;;;;;;;13.57;2.33;;;;;;;;;;4919079;29;20504;-77
2023/12/20 08:55:47;;;;;;;4.47;1.50;;;;;;;;;;4900501;29;20050;-74
2023/12/20 08:58:14;;;;;;;4.00;1.30;;;;;;;;;;4914438;29;20103;-74
2023/12/20 09:00:40;;;;;;;8.90;1.67;;;;;;;;;;4914607;29;20044;-74
2023/12/20 09:03:06;;;;;;;8.13;1.35;;;;;;;;;;4900380;29;20044;-74
2023/12/20 09:05:32;;;;;;;3.67;1.30;;;;;;;;;;4900744;29;20393;-74
2023/12/20 09:07:58;;;;;;;13.35;1.92;;;;;;;;;;4919601;29;20035;-85
2023/12/20 09:10:24;;;;;;;9.40;1.48;;;;;;;;;;4892894;29;20058;-74
2023/12/20 09:12:51;;;;;;;8.90;1.65;;;;;;;;;;4909251;29;20068;-74
2023/12/20 09:15:17;;;;;;;14.70;1.80;;;;;;;;;;4901193;29;20036;-75
2023/12/20 09:17:43;;;;;;;8.30;1.80;;;;;;;;;;4923455;29;20040;-74
2023/12/20 09:20:10;;;;;;;9.63;1.75;;;;;;;;;;4916417;29;20449;-75
2023/12/20 09:22:38;;;;;;;10.48;1.65;;;;;;;;;;4907172;29;20047;-75
2023/12/20 09:25:04;;;;;;;7.63;1.98;;;;;;;;;;4926328;29;20075;-75
2023/12/20 09:27:30;;;;;;;10.10;2.38;;;;;;;;;;4926934;29;20046;-75
2023/12/20 09:29:56;;;;;;;10.50;1.88;;;;;;;;;;4902417;29;20114;-75
2023/12/20 09:32:22;;;;;;;11.75;2.08;;;;;;;;;;4919087;29;20054;-75
2023/12/20 09:34:48;;;;;;;11.35;2.10;;;;;;;;;;4928729;29;20051;-75
2023/12/20 09:37:15;;;;;;;12.25;3.03;;;;;;;;;;4933125;29;20044;-75
2023/12/20 09:39:41;;;;;;;16.15;1.83;;;;;;;;;;4911501;29;20153;-74
2023/12/20 09:42:12;;;;;;;12.00;2.45;;;;;;;;;;4929698;29;20048;-74
2023/12/20 09:44:42;;;;;;;14.23;2.35;;;;;;;;;;4917855;29;20548;-74
2023/12/20 09:47:08;;;;;;;15.32;2.63;;;;;;;;;;4924094;29;20044;-81
2023/12/20 09:49:34;;;;;;;17.00;2.42;;;;;;;;;;4919907;29;20047;-80
2023/12/20 09:52:01;;;;;;;10.55;1.65;;;;;;;;;;4901330;29;20047;-80
2023/12/20 09:54:29;;;;;;;8.32;2.30;;;;;;;;;;4910976;29;20168;-81
2023/12/20 09:56:55;;;;;;;7.32;1.50;;;;;;;;;;4917935;29;20084;-80
2023/12/20 09:59:21;;;;;;;9.40;1.80;;;;;;;;;;4902988;29;20457;-80
2023/12/20 10:01:49;;;;;;;14.90;2.00;;;;;;;;;;4914336;29;20408;-80
2023/12/20 10:04:16;;;;;;;12.70;1.95;;;;;;;;;;4915577;29;20043;-81
2023/12/20 10:06:43;;;;;;;9.68;2.10;;;;;;;;;;4899469;29;20043;-81
2023/12/20 10:09:12;;;;;;;9.80;1.85;;;;;;;;;;4902776;29;20484;-80
2023/12/20 10:11:39;;;;;;;11.35;2.95;;;;;;;;;;4903926;29;20503;-85
2023/12/20 10:14:06;;;;;;;12.02;1.90;;;;;;;;;;4919999;29;20515;-80
2023/12/20 10:16:32;;;;;;;8.48;1.55;;;;;;;;;;4927562;29;20412;-80
2023/12/20 10:18:58;;;;;;;13.77;2.20;;;;;;;;;;4934722;29;20181;-80
2023/12/20 10:21:26;;;;;;;9.55;1.90;;;;;;;;;;4950142;29;20099;-80
2023/12/20 10:23:52;;;;;;;10.13;2.20;;;;;;;;;;4950224;29;20057;-80
2023/12/20 10:26:22;;;;;;;10.50;2.35;;;;;;;;;;4920488;29;20046;-81
2023/12/20 10:28:52;;;;;;;10.15;2.20;;;;;;;;;;4916992;29;20079;-80
2023/12/20 10:31:32;;;;;;;17.02;2.13;;;;;;;;;;4931791;29;20051;-80
2023/12/20 10:33:59;;;;;;;8.48;2.20;;;;;;;;;;4928446;29;20110;-80
2023/12/20 10:36:29;;;;;;;8.25;2.10;;;;;;;;;;4915199;29;20074;-81
2023/12/20 10:38:57;;;;;;;14.20;2.30;;;;;;;;;;4912028;29;20102;-80
2023/12/20 10:41:28;;;;;;;8.30;2.03;;;;;;;;;;4924066;29;20071;-80
2023/12/20 10:43:59;;;;;;;14.52;3.25;;;;;;;;;;4922831;29;20071;-81
2023/12/20 10:46:26;;;;;;;15.02;1.83;;;;;;;;;;4929688;29;20502;-80
2023/12/20 10:48:54;;;;;;;12.70;2.08;;;;;;;;;;4928546;29;20043;-81
2023/12/20 10:51:21;;;;;;;14.07;2.15;;;;;;;;;;4929952;29;20058;-80
2023/12/20 10:53:51;;;;;;;11.63;2.15;;;;;;;;;;4933335;29;20496;-80
2023/12/20 10:56:26;;;;;;;12.57;2.22;;;;;;;;;;4930515;29;20036;-80
2023/12/20 10:58:53;;;;;;;17.70;2.60;;;;;;;;;;4933077;29;20051;-80
2023/12/20 11:01:20;;;;;;;11.05;3.00;;;;;;;;;;4915619;29;20059;-81
2023/12/20 11:03:50;;;;;;;13.23;2.15;;;;;;;;;;4928659;29;20044;-80
2023/12/20 11:06:19;;;;;;;11.50;2.88;;;;;;;;;;4932140;29;20039;-81
2023/12/20 11:08:48;;;;;;;14.18;2.45;;;;;;;;;;4912620;29;20043;-81
2023/12/20 11:11:33;;;;;;;11.95;2.35;;;;;;;;;;4899422;29;20497;-81
2023/12/20 11:14:11;;;;;;;10.02;1.80;;;;;;;;;;4919727;29;20048;-81
2023/12/20 11:16:38;;;;;;;13.35;2.22;;;;;;;;;;4923925;29;20500;-81
2023/12/20 11:19:07;;;;;;;12.73;2.17;;;;;;;;;;4916100;29;20063;-81
2023/12/20 11:21:33;;;;;;;12.32;2.05;;;;;;;;;;4913250;29;20047;-81
2023/12/20 11:24:00;;;;;;;10.65;2.10;;;;;;;;;;4918623;29;20054;-82
2023/12/20 11:26:30;;;;;;;14.50;2.30;;;;;;;;;;4918544;29;20401;-82
2023/12/20 11:29:15;;;;;;;15.35;2.22;;;;;;;;;;4919014;29;20042;-81
2023/12/20 11:31:41;;;;;;;13.82;2.40;;;;;;;;;;4917102;29;20048;-81
2023/12/20 11:34:17;;;;;;;10.45;2.30;;;;;;;;;;4923112;29;20040;-81
2023/12/20 11:36:43;;;;;;;9.20;1.95;;;;;;;;;;4916008;29;20118;-81
2023/12/20 11:39:10;;;;;;;13.20;2.00;;;;;;;;;;4920676;29;20099;-81
2023/12/20 11:41:37;;;;;;;10.15;2.35;;;;;;;;;;4912022;29;20127;-80
2023/12/20 11:44:05;;;;;;;10.57;2.53;;;;;;;;;;4926874;29;20040;-80
2023/12/20 11:46:33;;;;;;;11.75;2.25;;;;;;;;;;4936596;29;20048;-79
2023/12/20 11:49:01;;;;;;;14.35;2.17;;;;;;;;;;4926759;29;20115;-80
2023/12/20 11:51:27;;;;;;;12.88;2.28;;;;;;;;;;4922899;29;20606;-80
2023/12/20 11:53:53;;;;;;;11.10;2.33;;;;;;;;;;4933651;29;20046;-80
2023/12/20 11:56:20;;;;;;;9.65;2.10;;;;;;;;;;4889863;29;20048;-80
2023/12/20 11:58:46;;;;;;;18.23;3.60;;;;;;;;;;4924330;29;20118;-80
2023/12/20 12:01:15;;;;;;;13.38;2.30;;;;;;;;;;4914658;29;20037;-81
2023/12/20 12:03:42;;;;;;;12.73;3.20;;;;;;;;;;4930520;29;20039;-80
2023/12/20 12:06:08;;;;;;;9.70;1.95;;;;;;;;;;4916306;29;20036;-80
2023/12/20 12:08:36;;;;;;;15.18;2.60;;;;;;;;;;4904787;29;20036;-80
2023/12/20 12:11:03;;;;;;;7.47;2.25;;;;;;;;;;4935303;29;20139;-79
2023/12/20 12:13:29;;;;;;;16.50;3.63;;;;;;;;;;4919173;29;20103;-80
2023/12/20 12:15:55;;;;;;;15.80;2.75;;;;;;;;;;4920142;29;20110;-80
2023/12/20 12:18:21;;;;;;;16.80;2.63;;;;;;;;;;4918882;29;20040;-80
2023/12/20 12:20:48;;;;;;;16.33;2.60;;;;;;;;;;4905608;29;20044;-80
2023/12/20 12:23:15;;;;;;;13.18;2.50;;;;;;;;;;4924566;29;20039;-80
2023/12/20 12:25:41;;;;;;;14.50;2.72;;;;;;;;;;4923577;29;20040;-79
2023/12/20 12:28:07;;;;;;;13.50;2.13;;;;;;;;;;4925011;29;20075;-79
2023/12/20 12:30:33;;;;;;;13.43;2.20;;;;;;;;;;4935800;29;20074;-80
2023/12/20 12:32:59;;;;;;;12.30;2.20;;;;;;;;;;4935855;29;20054;-79
2023/12/20 12:35:25;;;;;;;12.85;2.63;;;;;;;;;;4926529;29;21467;-79
2023/12/20 12:37:52;;;;;;;8.88;1.98;;;;;;;;;;4911701;29;20060;-79
2023/12/20 12:40:20;;;;;;;8.50;1.70;;;;;;;;;;4918266;29;20078;-79
2023/12/20 12:42:47;;;;;;;11.50;1.83;;;;;;;;;;4894856;29;20119;-80
2023/12/20 12:45:13;;;;;;;11.20;2.28;;;;;;;;;;4908493;29;20040;-79
2023/12/20 12:47:40;;;;;;;10.55;1.75;;;;;;;;;;4915754;29;20040;-79
2023/12/20 12:50:06;;;;;;;11.52;2.00;;;;;;;;;;4913850;29;20404;-79
2023/12/20 12:52:32;;;;;;;11.18;1.70;;;;;;;;;;4921681;29;20036;-79
2023/12/20 12:54:58;;;;;;;8.30;1.77;;;;;;;;;;4935849;29;20127;-79
2023/12/20 12:57:24;;;;;;;7.50;1.70;;;;;;;;;;4919698;29;20055;-80
2023/12/20 12:59:50;;;;;;;12.07;2.10;;;;;;;;;;4928197;29;20425;-79
2023/12/20 13:02:16;;;;;;;10.45;1.80;;;;;;;;;;4920389;29;20044;-79
2023/12/20 13:04:43;;;;;;;10.63;2.15;;;;;;;;;;4905593;29;20497;-79
2023/12/20 13:07:13;;;;;;;7.82;1.50;;;;;;;;;;4930934;29;20119;-80
2023/12/20 13:09:39;;;;;;;6.75;1.60;;;;;;;;;;4885723;29;20116;-79
2023/12/20 13:12:06;;;;;;;6.55;1.70;;;;;;;;;;4928849;29;20484;-79
2023/12/20 13:14:38;;;;;;;3.53;1.48;;;;;;;;;;4935630;29;20043;-79
2023/12/20 13:17:05;;;;;;;9.32;1.65;;;;;;;;;;4933553;29;20154;-79
2023/12/20 13:19:32;;;;;;;7.63;1.70;;;;;;;;;;4917782;29;20588;-79
2023/12/20 13:21:58;;;;;;;10.32;1.85;;;;;;;;;;4934758;29;20500;-80
2023/12/20 13:24:24;;;;;;;7.35;1.55;;;;;;;;;;4933319;29;20123;-80
2023/12/20 13:26:50;;;;;;;4.43;1.30;;;;;;;;;;4918835;29;20050;-79
2023/12/20 13:29:16;;;;;;;10.27;1.50;;;;;;;;;;4935185;29;20156;-79
2023/12/20 13:31:42;;;;;;;6.13;1.20;;;;;;;;;;4905532;29;20040;-79
2023/12/20 13:34:08;;;;;;;6.03;1.67;;;;;;;;;;4933183;29;20122;-79
2023/12/20 13:36:36;;;;;;;9.10;1.55;;;;;;;;;;4930499;29;20059;-79
2023/12/20 13:39:04;;;;;;;6.40;1.77;;;;;;;;;;4927335;29;20125;-79
2023/12/20 13:41:30;;;;;;;7.18;1.50;;;;;;;;;;4907267;29;20049;-80
2023/12/20 13:43:56;;;;;;;7.93;1.52;;;;;;;;;;4927005;29;20071;-81
2023/12/20 13:46:22;;;;;;;7.20;2.05;;;;;;;;;;4919236;29;20143;-81
2023/12/20 13:48:49;;;;;;;4.68;1.50;;;;;;;;;;4918736;29;20040;-81
2023/12/20 13:51:15;;;;;;;5.95;1.83;;;;;;;;;;4900089;29;20392;-81
2023/12/20 13:53:41;;;;;;;6.03;1.73;;;;;;;;;;4929887;29;20530;-81
2023/12/20 13:56:07;;;;;;;11.68;1.90;;;;;;;;;;4901851;29;20457;-81
2023/12/20 13:58:34;;;;;;;10.95;1.60;;;;;;;;;;4919372;29;20044;-81
2023/12/20 14:01:00;;;;;;;7.72;1.40;;;;;;;;;;4918674;29;20584;-81
2023/12/20 14:03:26;;;;;;;7.95;1.70;;;;;;;;;;4935362;29;20374;-81
2023/12/20 14:05:52;;;;;;;7.82;2.35;;;;;;;;;;4887622;29;20128;-81
2023/12/20 14:08:18;;;;;;;9.80;1.40;;;;;;;;;;4887569;29;20556;-80
2023/12/20 14:10:44;;;;;;;10.13;1.90;;;;;;;;;;4930547;29;20106;-81
2023/12/20 14:13:10;;;;;;;8.10;1.88;;;;;;;;;;4919025;29;20513;-81
2023/12/20 14:15:37;;;;;;;5.80;1.58;;;;;;;;;;4934930;29;20373;-81
2023/12/20 14:18:07;;;;;;;7.97;2.40;;;;;;;;;;4934786;29;20126;-81
2023/12/20 14:20:39;;;;;;;13.40;1.90;;;;;;;;;;4934415;29;20171;-81
2023/12/20 14:23:05;;;;;;;12.83;2.97;;;;;;;;;;4935083;29;20079;-81
2023/12/20 14:25:31;;;;;;;12.80;2.88;;;;;;;;;;4934489;29;20046;-87
2023/12/20 14:27:57;;;;;;;8.68;2.25;;;;;;;;;;4888728;29;20481;-80